sensor_id;sensor_type;location;lat;lon;timestamp;temperature;humidity
14529;DHT22;7351;51.194;4.098;2022-12-20T00:02:13;10.20;99.90
14529;DHT22;7351;51.194;4.098;2022-12-20T00:04:40;10.50;99.90
14529;DHT22;7351;51.194;4.098;2022-12-20T00:07:07;10.60;99.90
14529;DHT22;7351;51.194;4.098;2022-12-20T00:09:35;10.70;99.90
14529;DHT22;7351;51.194;4.098;2022-12-20T00:12:04;10.60;99.90
14529;DHT22;7351;51.194;4.098;2022-12-20T00:14:31;10.70;99.90
14529;DHT22;7351;51.194;4.098;2022-12-20T00:16:58;10.50;99.90
14529;DHT22;7351;51.194;4.098;2022-12-20T00:19:25;10.60;99.90
14529;DHT22;7351;51.194;4.098;2022-12-20T00:21:52;10.60;99.90
14529;DHT22;7351;51.194;4.098;2022-12-20T00:24:20;10.50;99.90
14529;DHT22;7351;51.194;4.098;2022-12-20T00:33:34;10.50;99.90
14529;DHT22;7351;51.194;4.098;2022-12-20T00:36:03;10.40;99.90
14529;DHT22;7351;51.194;4.098;2022-12-20T00:41:10;10.40;99.90
14529;DHT22;7351;51.194;4.098;2022-12-20T00:43:39;10.20;99.90
14529;DHT22;7351;51.194;4.098;2022-12-20T00:46:07;10.50;99.90
14529;DHT22;7351;51.194;4.098;2022-12-20T00:48:37;10.30;99.90
14529;DHT22;7351;51.194;4.098;2022-12-20T00:51:06;10.20;99.90
14529;DHT22;7351;51.194;4.098;2022-12-20T00:53:34;10.20;99.90
14529;DHT22;7351;51.194;4.098;2022-12-20T00:58:39;10.40;99.90
14529;DHT22;7351;51.194;4.098;2022-12-20T01:01:16;10.40;99.90
14529;DHT22;7351;51.194;4.098;2022-12-20T01:09:02;10.50;99.90
14529;DHT22;7351;51.194;4.098;2022-12-20T01:11:48;10.40;99.90
14529;DHT22;7351;51.194;4.098;2022-12-20T01:14:16;10.50;99.90
14529;DHT22;7351;51.194;4.098;2022-12-20T01:16:44;10.30;99.90
14529;DHT22;7351;51.194;4.098;2022-12-20T01:19:14;10.50;99.90
14529;DHT22;7351;51.194;4.098;2022-12-20T01:21:42;10.50;99.90
14529;DHT22;7351;51.194;4.098;2022-12-20T01:24:11;10.50;99.90
14529;DHT22;7351;51.194;4.098;2022-12-20T01:29:45;10.50;99.90
14529;DHT22;7351;51.194;4.098;2022-12-20T01:32:13;10.40;99.90
14529;DHT22;7351;51.194;4.098;2022-12-20T01:34:40;10.80;99.90
14529;DHT22;7351;51.194;4.098;2022-12-20T01:37:09;10.60;99.90
14529;DHT22;7351;51.194;4.098;2022-12-20T01:39:37;10.50;99.90
14529;DHT22;7351;51.194;4.098;2022-12-20T01:42:05;10.60;99.90
14529;DHT22;7351;51.194;4.098;2022-12-20T01:44:55;10.50;99.90
14529;DHT22;7351;51.194;4.098;2022-12-20T01:47:25;10.50;99.90
14529;DHT22;7351;51.194;4.098;2022-12-20T01:59:55;10.50;99.90
14529;DHT22;7351;51.194;4.098;2022-12-20T02:02:26;10.50;99.90
14529;DHT22;7351;51.194;4.098;2022-12-20T02:04:53;10.60;99.90
14529;DHT22;7351;51.194;4.098;2022-12-20T02:07:24;10.30;99.90
14529;DHT22;7351;51.194;4.098;2022-12-20T02:13:28;10.70;99.90
14529;DHT22;7351;51.194;4.098;2022-12-20T02:16:01;10.70;99.90
14529;DHT22;7351;51.194;4.098;2022-12-20T02:18:34;10.80;99.90
14529;DHT22;7351;51.194;4.098;2022-12-20T02:21:23;10.80;99.90
14529;DHT22;7351;51.194;4.098;2022-12-20T02:24:23;10.70;99.90
14529;DHT22;7351;51.194;4.098;2022-12-20T02:30:04;10.40;99.90
14529;DHT22;7351;51.194;4.098;2022-12-20T02:32:39;10.50;99.90
14529;DHT22;7351;51.194;4.098;2022-12-20T02:35:12;10.60;99.90
14529;DHT22;7351;51.194;4.098;2022-12-20T02:37:47;10.60;99.90
14529;DHT22;7351;51.194;4.098;2022-12-20T02:40:16;10.50;99.90
14529;DHT22;7351;51.194;4.098;2022-12-20T02:42:46;10.70;99.90
14529;DHT22;7351;51.194;4.098;2022-12-20T02:45:17;10.60;99.90
14529;DHT22;7351;51.194;4.098;2022-12-20T02:47:49;10.70;99.90
14529;DHT22;7351;51.194;4.098;2022-12-20T02:50:20;10.70;99.90
14529;DHT22;7351;51.194;4.098;2022-12-20T02:52:48;10.50;99.90
14529;DHT22;7351;51.194;4.098;2022-12-20T02:57:57;10.70;99.90
14529;DHT22;7351;51.194;4.098;2022-12-20T03:00:31;10.70;99.90
14529;DHT22;7351;51.194;4.098;2022-12-20T03:03:00;10.60;99.90
14529;DHT22;7351;51.194;4.098;2022-12-20T03:05:50;10.90;99.90
14529;DHT22;7351;51.194;4.098;2022-12-20T03:08:18;10.70;99.90
14529;DHT22;7351;51.194;4.098;2022-12-20T03:13:20;10.80;99.90
14529;DHT22;7351;51.194;4.098;2022-12-20T03:15:49;10.90;99.90
14529;DHT22;7351;51.194;4.098;2022-12-20T03:18:16;10.80;99.90
14529;DHT22;7351;51.194;4.098;2022-12-20T03:27:11;11.10;99.90
14529;DHT22;7351;51.194;4.098;2022-12-20T03:29:39;11.10;99.90
14529;DHT22;7351;51.194;4.098;2022-12-20T03:32:12;11.00;99.90
14529;DHT22;7351;51.194;4.098;2022-12-20T03:34:42;11.00;99.90
14529;DHT22;7351;51.194;4.098;2022-12-20T03:37:09;11.00;99.90
14529;DHT22;7351;51.194;4.098;2022-12-20T03:39:37;11.10;99.90
14529;DHT22;7351;51.194;4.098;2022-12-20T03:42:04;11.20;99.90
14529;DHT22;7351;51.194;4.098;2022-12-20T03:44:31;11.00;99.90
14529;DHT22;7351;51.194;4.098;2022-12-20T03:47:01;11.10;99.90
14529;DHT22;7351;51.194;4.098;2022-12-20T03:52:53;11.00;99.90
14529;DHT22;7351;51.194;4.098;2022-12-20T03:55:20;11.00;99.90
14529;DHT22;7351;51.194;4.098;2022-12-20T03:57:47;11.00;99.90
14529;DHT22;7351;51.194;4.098;2022-12-20T04:00:15;11.00;99.90
14529;DHT22;7351;51.194;4.098;2022-12-20T04:05:22;10.90;99.90
14529;DHT22;7351;51.194;4.098;2022-12-20T04:10:26;10.90;99.90
14529;DHT22;7351;51.194;4.098;2022-12-20T04:12:53;10.60;99.90
14529;DHT22;7351;51.194;4.098;2022-12-20T04:15:20;11.00;99.90
14529;DHT22;7351;51.194;4.098;2022-12-20T04:17:47;11.10;99.90
14529;DHT22;7351;51.194;4.098;2022-12-20T04:20:15;11.00;99.90
14529;DHT22;7351;51.194;4.098;2022-12-20T04:36:31;11.20;99.90
14529;DHT22;7351;51.194;4.098;2022-12-20T04:38:58;11.20;99.90
14529;DHT22;7351;51.194;4.098;2022-12-20T04:41:28;11.20;99.90
14529;DHT22;7351;51.194;4.098;2022-12-20T04:43:57;11.20;99.90
14529;DHT22;7351;51.194;4.098;2022-12-20T04:46:25;11.20;99.90
14529;DHT22;7351;51.194;4.098;2022-12-20T04:48:55;11.20;99.90
14529;DHT22;7351;51.194;4.098;2022-12-20T04:59:37;11.20;99.90
14529;DHT22;7351;51.194;4.098;2022-12-20T05:02:04;11.30;99.90
14529;DHT22;7351;51.194;4.098;2022-12-20T05:04:31;11.20;99.90
14529;DHT22;7351;51.194;4.098;2022-12-20T05:13:28;10.90;99.90
14529;DHT22;7351;51.194;4.098;2022-12-20T05:25:16;11.20;99.90
14529;DHT22;7351;51.194;4.098;2022-12-20T05:34:06;11.10;99.90
14529;DHT22;7351;51.194;4.098;2022-12-20T05:42:00;11.20;99.90
14529;DHT22;7351;51.194;4.098;2022-12-20T05:44:27;11.20;99.90
14529;DHT22;7351;51.194;4.098;2022-12-20T05:46:54;11.10;99.90
14529;DHT22;7351;51.194;4.098;2022-12-20T05:49:21;11.10;99.90
14529;DHT22;7351;51.194;4.098;2022-12-20T05:51:48;11.20;99.90
14529;DHT22;7351;51.194;4.098;2022-12-20T05:54:15;11.20;99.90
14529;DHT22;7351;51.194;4.098;2022-12-20T05:56:45;12.10;99.90
14529;DHT22;7351;51.194;4.098;2022-12-20T05:59:13;11.10;99.90
14529;DHT22;7351;51.194;4.098;2022-12-20T06:01:42;11.10;99.90
14529;DHT22;7351;51.194;4.098;2022-12-20T06:07:32;11.00;99.90
14529;DHT22;7351;51.194;4.098;2022-12-20T07:42:12;10.80;99.90
14529;DHT22;7351;51.194;4.098;2022-12-20T08:01:22;10.70;99.90
